Aérodrome :
LOGIN :

S'inscrire | Disclaimer

   EN    FR    IT 

 










Légende :    VFR   VFR Marginal   IFR   IFR Intensif   IFR Très Intensif
Visi : 
Plafond : 
>= 8 km
>= 3000ft
5 à 8 km
1000 à 3000 ft
1500m à 5 km
500 à 1000 ft
800 à 1500m
200 à 500 ft
< 800m
< 200 ft
Symboles :   Orages  Brouillard  Fortes neiges  Fortes précipitations  Vent > 20 kt
SIGMETs :   Divers  Orages  Givrage  Turbulence  Onde Orograph.  Cendres Volcan.







- Altitude de l'aérodrome : 3 ft
- Code IATA : LWR


EHLW - Leuuwarden Air Base

DERNIER METAR :
  • 190655Z AUTO VRB01KT 9999 OVC044 12/08 Q1030 BLU VRB02KT 9999 SCT045

METARs EXPIRÉS :
  • 190641Z AUTO VRB02KT 9999 OVC043 11/09 Q1030 BLU VRB02KT 9999 SCT045
  • 190625Z AUTO 04002KT 9999 BKN042 BKN046 10/08 Q1029 BLU 30004KT 9999 SCT035
  • 190555Z AUTO 09001KT 9999 OVC045 08/07 Q1029 BLU 30004KT 9999 SCT035
  • 190525Z AUTO 24001KT 9999 BKN042 BKN047 07/07 Q1029 BLU 30004KT 9999 SCT035
  • 190507Z AUTO 22002KT 9999 SCT035 BKN042 07/06 Q1029 BLU 30004KT 9999 SCT035
  • 190455Z AUTO 23002KT 9999 SCT037 BKN042 OVC046 07/07 Q1029 BLU
  • 190425Z AUTO 22001KT 9999 FEW034 SCT040 OVC370 06/06 Q1029 BLU
  • 190355Z AUTO 19002KT 9999 FEW037 SCT042 OVC047 07/06 Q1029 BLU

TAF TAF EHLW
Valide du 19 à 05h jusqu'au 19 à 17h UTC


190413Z 1905/1917 VRB03KT 9999 SCT038
BECMG 1906/1909 33007KT
Pas de NOTAMs connus pour ce terrain.



MET'MAP, la Météo Aéronautique d'un coup d'oeil ! - Copyright ORBIFLY Décembre 2007 - Disclaimer

ORBIFLY MET'MAP TEAM :

Programmation & Développement : Alexandra Zaïnal
Conception & Développement : Baudouin d'Aumeries
Co-Programmation & Développement : Marc-Olivier Méhu
Soutien technique & logistique : Manuel Goepfert

Contact : metmap@orbifly.com




SOURCES & CREDITS :

   NOAA